Spar Hydra — LAKL7 — position and weather

sailwx.info

Track history (hours):
 
Tides and Currents Weather Stations Pressure Air Temp Water Temp Dewpoint Dewpoint Depression Visibility Wind Speed Wind Dir Waves Ship Positions

Spar Hydra

Last reported at 2016-Jun-18 18:30 UTC. Time now 2016-Jun-30 21:25 UTC.
Position N 22°06' E 114°20'.
Warning: this ship's position is 12 days out of date.

Length 190 m; draft 12.8 m.

Type: Cargo ship. MMSI: 259701000.

Date/timePositionNaut miles runAvg speedWind from/ knotsBaromVisibWave heightAir tempDewpointWater temp
2016-Jun-18 18:30N 22°06' E 114°20'10 8.4
2016-Jun-18 17:15N 22°09' E 114°10'0 0.0
2016-Jun-18 11:30N 22°09' E 114°10'5 5.2
2016-Jun-18 10:33N 22°08' E 114°15'  
2016-Jun-14 02:23N 35°24' E 122°58'910.9
2016-Jun-14 01:32N 35°33' E 122°58'1611.0
2016-Jun-14 00:04N 35°49' E 122°58'1911.3
2016-Jun-13 22:25N 36°08' E 122°59'1111.3
2016-Jun-13 21:26N 36°19' E 122°59'1011.0
2016-Jun-13 20:30N 36°29' E 122°59'1010.9
2016-Jun-13 19:33N 36°40' E 123°00'1110.8
2016-Jun-13 18:33N 36°50' E 123°01'1110.5
2016-Jun-13 17:33N 37°01' E 122°59'1010.1
2016-Jun-13 16:33N 37°11' E 122°58'1010.3
2016-Jun-13 15:33N 37°21' E 122°58'1110.5
2016-Jun-13 14:33N 37°32' E 122°58'1110.9
2016-Jun-13 13:31N 37°40' E 122°48'1211.6
2016-Jun-13 12:30N 37°47' E 122°36'2711.5
2016-Jun-13 10:09N 38°01' E 122°07'711.1
2016-Jun-13 09:33N 38°04' E 121°60'1411.9
2016-Jun-13 08:25N 38°12' E 121°45'1011.4
2016-Jun-13 07:32N 38°17' E 121°34'1111.0
2016-Jun-13 06:34N 38°21' E 121°22'1111.2
2016-Jun-13 05:33N 38°27' E 121°09'1211.6
2016-Jun-13 04:33N 38°32' E 120°56'116 4.8
2016-Jun-12 04:13N 40°15' E 122°06'0 0.0
2016-Jun-12 03:13N 40°15' E 122°06'0 0.0
2016-Jun-12 02:07N 40°15' E 122°06'0 0.0
2016-Jun-12 01:19N 40°15' E 122°06'0 0.0
2016-Jun-11 21:19N 40°15' E 122°06'0 0.0
2016-Jun-11 20:31N 40°15' E 122°06'0 0.0
2016-Jun-11 19:31N 40°15' E 122°06'0 0.0
2016-Jun-11 18:31N 40°15' E 122°06'0 0.0
2016-Jun-11 17:13N 40°15' E 122°06'0 0.0
2016-Jun-11 16:31N 40°15' E 122°06'0 0.0
2016-Jun-11 15:31N 40°15' E 122°06'0 0.0
2016-Jun-11 14:31N 40°15' E 122°06'0 0.0
2016-Jun-11 13:31N 40°15' E 122°06'0 0.0
2016-Jun-11 12:31N 40°15' E 122°06'0 0.0
2016-Jun-11 11:19N 40°15' E 122°06'0 0.0
2016-Jun-11 10:31N 40°15' E 122°06'0 0.0
2016-Jun-11 09:31N 40°15' E 122°06'0 0.0
2016-Jun-11 08:25N 40°15' E 122°06'0 0.0
2016-Jun-11 07:31N 40°15' E 122°06'0 0.0
2016-Jun-11 04:25N 40°15' E 122°06'0 0.0
2016-Jun-11 03:31N 40°15' E 122°06'0 0.0
2016-Jun-11 02:31N 40°15' E 122°06'0 0.0
2016-Jun-11 01:31N 40°15' E 122°06'0 0.0
2016-Jun-11 00:31N 40°15' E 122°06'0 0.0
2016-Jun-10 23:25N 40°15' E 122°06'0 0.0
2016-Jun-10 22:31N 40°15' E 122°06'0 0.0
2016-Jun-10 21:31N 40°15' E 122°06'0 0.0
2016-Jun-10 18:31N 40°15' E 122°06'0 0.0
2016-Jun-10 17:31N 40°15' E 122°06'0 0.0
2016-Jun-10 15:31N 40°15' E 122°06'0 0.0
2016-Jun-10 13:19N 40°15' E 122°06'0 0.0
2016-Jun-10 12:31N 40°15' E 122°06'0 0.0
2016-Jun-10 11:25N 40°15' E 122°06'0 0.0
2016-Jun-10 10:31N 40°15' E 122°06'1 0.8
2016-Jun-10 09:32N 40°16' E 122°05'110 8.4
2016-Jun-09 20:27N 39°17' E 120°04'3712.2
2016-Jun-09 17:27N 38°54' E 119°28'1111.6
2016-Jun-09 16:32N 38°49' E 119°16'1212.2
2016-Jun-09 15:33N 38°48' E 119°00'1312.5
2016-Jun-09 14:31N 38°47' E 118°44'1111.6
2016-Jun-09 13:33N 38°51' E 118°30'  
Track history (hours):
 
Tides and Currents Weather Stations Pressure Air Temp Water Temp Dewpoint Dewpoint Depression Visibility Wind Speed Wind Dir Waves Ship Positions

Spar Hydra

Last reported at 2016-Jun-18 18:30 UTC. Time now 2016-Jun-30 21:25 UTC.
Position N 22°06' E 114°20'.
Warning: this ship's position is 12 days out of date.

Length 190 m; draft 12.8 m.

Type: Cargo ship. MMSI: 259701000.

Date/timePositionNaut miles runAvg speedWind from/ knotsBaromVisibWave heightAir tempDewpointWater temp
2016-Jun-18 18:30N 22°06' E 114°20'10 8.4
2016-Jun-18 17:15N 22°09' E 114°10'0 0.0
2016-Jun-18 11:30N 22°09' E 114°10'5 5.2
2016-Jun-18 10:33N 22°08' E 114°15'  
2016-Jun-14 02:23N 35°24' E 122°58'910.9
2016-Jun-14 01:32N 35°33' E 122°58'1611.0
2016-Jun-14 00:04N 35°49' E 122°58'1911.3
2016-Jun-13 22:25N 36°08' E 122°59'1111.3
2016-Jun-13 21:26N 36°19' E 122°59'1011.0
2016-Jun-13 20:30N 36°29' E 122°59'1010.9
2016-Jun-13 19:33N 36°40' E 123°00'1110.8
2016-Jun-13 18:33N 36°50' E 123°01'1110.5
2016-Jun-13 17:33N 37°01' E 122°59'1010.1
2016-Jun-13 16:33N 37°11' E 122°58'1010.3
2016-Jun-13 15:33N 37°21' E 122°58'1110.5
2016-Jun-13 14:33N 37°32' E 122°58'1110.9
2016-Jun-13 13:31N 37°40' E 122°48'1211.6
2016-Jun-13 12:30N 37°47' E 122°36'2711.5
2016-Jun-13 10:09N 38°01' E 122°07'711.1
2016-Jun-13 09:33N 38°04' E 121°60'1411.9
2016-Jun-13 08:25N 38°12' E 121°45'1011.4
2016-Jun-13 07:32N 38°17' E 121°34'1111.0
2016-Jun-13 06:34N 38°21' E 121°22'1111.2
2016-Jun-13 05:33N 38°27' E 121°09'1211.6
2016-Jun-13 04:33N 38°32' E 120°56'116 4.8
2016-Jun-12 04:13N 40°15' E 122°06'0 0.0
2016-Jun-12 03:13N 40°15' E 122°06'0 0.0
2016-Jun-12 02:07N 40°15' E 122°06'0 0.0
2016-Jun-12 01:19N 40°15' E 122°06'0 0.0
2016-Jun-11 21:19N 40°15' E 122°06'0 0.0
2016-Jun-11 20:31N 40°15' E 122°06'0 0.0
2016-Jun-11 19:31N 40°15' E 122°06'0 0.0
2016-Jun-11 18:31N 40°15' E 122°06'0 0.0
2016-Jun-11 17:13N 40°15' E 122°06'0 0.0
2016-Jun-11 16:31N 40°15' E 122°06'0 0.0
2016-Jun-11 15:31N 40°15' E 122°06'0 0.0
2016-Jun-11 14:31N 40°15' E 122°06'0 0.0
2016-Jun-11 13:31N 40°15' E 122°06'0 0.0
2016-Jun-11 12:31N 40°15' E 122°06'0 0.0
2016-Jun-11 11:19N 40°15' E 122°06'0 0.0
2016-Jun-11 10:31N 40°15' E 122°06'0 0.0
2016-Jun-11 09:31N 40°15' E 122°06'0 0.0
2016-Jun-11 08:25N 40°15' E 122°06'0 0.0
2016-Jun-11 07:31N 40°15' E 122°06'0 0.0
2016-Jun-11 04:25N 40°15' E 122°06'0 0.0
2016-Jun-11 03:31N 40°15' E 122°06'0 0.0
2016-Jun-11 02:31N 40°15' E 122°06'0 0.0
2016-Jun-11 01:31N 40°15' E 122°06'0 0.0
2016-Jun-11 00:31N 40°15' E 122°06'0 0.0
2016-Jun-10 23:25N 40°15' E 122°06'0 0.0
2016-Jun-10 22:31N 40°15' E 122°06'0 0.0
2016-Jun-10 21:31N 40°15' E 122°06'0 0.0
2016-Jun-10 18:31N 40°15' E 122°06'0 0.0
2016-Jun-10 17:31N 40°15' E 122°06'0 0.0
2016-Jun-10 15:31N 40°15' E 122°06'0 0.0
2016-Jun-10 13:19N 40°15' E 122°06'0 0.0
2016-Jun-10 12:31N 40°15' E 122°06'0 0.0
2016-Jun-10 11:25N 40°15' E 122°06'0 0.0
2016-Jun-10 10:31N 40°15' E 122°06'1 0.8
2016-Jun-10 09:32N 40°16' E 122°05'110 8.4
2016-Jun-09 20:27N 39°17' E 120°04'3712.2
2016-Jun-09 17:27N 38°54' E 119°28'1111.6
2016-Jun-09 16:32N 38°49' E 119°16'1212.2
2016-Jun-09 15:33N 38°48' E 119°00'1312.5
2016-Jun-09 14:31N 38°47' E 118°44'1111.6
2016-Jun-09 13:33N 38°51' E 118°30'  

Dump ship's entire track history